sensor_id;sensor_type;location;lat;lon;timestamp;temperature;humidity
32187;DHT22;18686;53.084;8.872;2023-12-29T00:00:06;11.40;99.90
32187;DHT22;18686;53.084;8.872;2023-12-29T00:02:38;11.40;99.90
32187;DHT22;18686;53.084;8.872;2023-12-29T00:05:07;11.40;99.90
32187;DHT22;18686;53.084;8.872;2023-12-29T00:07:35;11.40;99.90
32187;DHT22;18686;53.084;8.872;2023-12-29T00:10:05;11.30;99.90
32187;DHT22;18686;53.084;8.872;2023-12-29T00:12:33;11.40;99.90
32187;DHT22;18686;53.084;8.872;2023-12-29T00:15:02;11.40;99.90
32187;DHT22;18686;53.084;8.872;2023-12-29T00:17:30;11.30;99.90
32187;DHT22;18686;53.084;8.872;2023-12-29T00:20:00;11.40;99.90
32187;DHT22;18686;53.084;8.872;2023-12-29T00:22:28;11.40;99.90
32187;DHT22;18686;53.084;8.872;2023-12-29T00:24:57;11.40;99.90
32187;DHT22;18686;53.084;8.872;2023-12-29T00:27:25;11.30;99.90
32187;DHT22;18686;53.084;8.872;2023-12-29T00:29:53;11.30;99.90
32187;DHT22;18686;53.084;8.872;2023-12-29T00:32:23;11.30;99.90
32187;DHT22;18686;53.084;8.872;2023-12-29T00:34:52;11.30;99.90
32187;DHT22;18686;53.084;8.872;2023-12-29T00:37:22;11.30;99.90
32187;DHT22;18686;53.084;8.872;2023-12-29T00:39:53;11.30;99.90
32187;DHT22;18686;53.084;8.872;2023-12-29T00:42:22;11.30;99.90
32187;DHT22;18686;53.084;8.872;2023-12-29T00:44:50;11.30;99.90
32187;DHT22;18686;53.084;8.872;2023-12-29T00:47:19;11.20;99.90
32187;DHT22;18686;53.084;8.872;2023-12-29T00:49:47;11.20;99.90
32187;DHT22;18686;53.084;8.872;2023-12-29T00:52:16;11.20;99.90
32187;DHT22;18686;53.084;8.872;2023-12-29T00:54:47;11.20;99.90
32187;DHT22;18686;53.084;8.872;2023-12-29T00:57:16;11.10;99.90
32187;DHT22;18686;53.084;8.872;2023-12-29T00:59:47;11.10;99.90
32187;DHT22;18686;53.084;8.872;2023-12-29T01:02:16;11.10;99.90
32187;DHT22;18686;53.084;8.872;2023-12-29T01:04:44;11.10;99.90
32187;DHT22;18686;53.084;8.872;2023-12-29T01:07:13;11.00;99.90
32187;DHT22;18686;53.084;8.872;2023-12-29T01:09:41;11.00;99.90
32187;DHT22;18686;53.084;8.872;2023-12-29T01:12:11;11.00;99.90
32187;DHT22;18686;53.084;8.872;2023-12-29T01:14:42;11.00;99.90
32187;DHT22;18686;53.084;8.872;2023-12-29T01:17:10;11.00;99.90
32187;DHT22;18686;53.084;8.872;2023-12-29T01:19:38;11.00;99.90
32187;DHT22;18686;53.084;8.872;2023-12-29T01:22:06;11.00;99.90
32187;DHT22;18686;53.084;8.872;2023-12-29T01:24:35;11.00;99.90
32187;DHT22;18686;53.084;8.872;2023-12-29T01:27:13;11.00;99.90
32187;DHT22;18686;53.084;8.872;2023-12-29T01:29:42;11.00;99.90
32187;DHT22;18686;53.084;8.872;2023-12-29T01:32:10;10.90;99.90
32187;DHT22;18686;53.084;8.872;2023-12-29T01:34:38;10.80;99.90
32187;DHT22;18686;53.084;8.872;2023-12-29T01:37:07;10.60;99.90
32187;DHT22;18686;53.084;8.872;2023-12-29T01:39:36;10.50;99.90
32187;DHT22;18686;53.084;8.872;2023-12-29T01:42:06;10.40;99.90
32187;DHT22;18686;53.084;8.872;2023-12-29T01:44:36;10.40;99.90
32187;DHT22;18686;53.084;8.872;2023-12-29T01:47:11;10.40;99.90
32187;DHT22;18686;53.084;8.872;2023-12-29T01:49:44;10.30;99.90
32187;DHT22;18686;53.084;8.872;2023-12-29T01:52:14;10.30;99.90
32187;DHT22;18686;53.084;8.872;2023-12-29T01:54:46;10.10;99.90
32187;DHT22;18686;53.084;8.872;2023-12-29T01:57:15;10.00;99.90
32187;DHT22;18686;53.084;8.872;2023-12-29T01:59:45;9.80;99.90
32187;DHT22;18686;53.084;8.872;2023-12-29T02:02:16;9.70;99.90
32187;DHT22;18686;53.084;8.872;2023-12-29T02:04:44;9.60;99.90
32187;DHT22;18686;53.084;8.872;2023-12-29T02:07:13;9.50;99.90
32187;DHT22;18686;53.084;8.872;2023-12-29T02:09:43;9.40;99.90
32187;DHT22;18686;53.084;8.872;2023-12-29T02:12:12;9.40;99.90
32187;DHT22;18686;53.084;8.872;2023-12-29T02:14:40;9.30;99.90
32187;DHT22;18686;53.084;8.872;2023-12-29T02:17:17;9.30;99.90
32187;DHT22;18686;53.084;8.872;2023-12-29T02:19:49;9.20;99.90
32187;DHT22;18686;53.084;8.872;2023-12-29T02:22:18;9.20;99.90
32187;DHT22;18686;53.084;8.872;2023-12-29T02:24:48;9.20;99.90
32187;DHT22;18686;53.084;8.872;2023-12-29T02:27:23;9.10;99.90
32187;DHT22;18686;53.084;8.872;2023-12-29T02:30:02;9.10;99.90
32187;DHT22;18686;53.084;8.872;2023-12-29T02:32:33;9.20;99.90
32187;DHT22;18686;53.084;8.872;2023-12-29T02:35:06;9.10;99.90
32187;DHT22;18686;53.084;8.872;2023-12-29T02:37:36;9.20;99.90
32187;DHT22;18686;53.084;8.872;2023-12-29T02:40:07;9.10;99.90
32187;DHT22;18686;53.084;8.872;2023-12-29T02:42:36;9.10;99.90
32187;DHT22;18686;53.084;8.872;2023-12-29T02:45:04;9.20;99.90
32187;DHT22;18686;53.084;8.872;2023-12-29T02:47:33;9.20;99.90
32187;DHT22;18686;53.084;8.872;2023-12-29T02:50:01;9.10;99.90
32187;DHT22;18686;53.084;8.872;2023-12-29T02:52:30;9.10;99.90
32187;DHT22;18686;53.084;8.872;2023-12-29T02:54:58;9.10;99.90
32187;DHT22;18686;53.084;8.872;2023-12-29T02:57:28;9.10;99.90
32187;DHT22;18686;53.084;8.872;2023-12-29T02:59:56;9.10;99.90
32187;DHT22;18686;53.084;8.872;2023-12-29T03:02:25;9.10;99.90
32187;DHT22;18686;53.084;8.872;2023-12-29T03:04:53;9.10;99.90
32187;DHT22;18686;53.084;8.872;2023-12-29T03:07:21;9.10;99.90
32187;DHT22;18686;53.084;8.872;2023-12-29T03:09:51;9.00;99.90
32187;DHT22;18686;53.084;8.872;2023-12-29T03:12:19;9.00;99.90
32187;DHT22;18686;53.084;8.872;2023-12-29T03:14:48;8.90;99.90
32187;DHT22;18686;53.084;8.872;2023-12-29T03:17:17;8.90;99.90
32187;DHT22;18686;53.084;8.872;2023-12-29T03:19:45;8.90;99.90
32187;DHT22;18686;53.084;8.872;2023-12-29T03:22:13;8.90;99.90
32187;DHT22;18686;53.084;8.872;2023-12-29T03:24:42;8.90;99.90
32187;DHT22;18686;53.084;8.872;2023-12-29T03:27:10;8.90;99.90
32187;DHT22;18686;53.084;8.872;2023-12-29T03:29:38;8.90;99.90
32187;DHT22;18686;53.084;8.872;2023-12-29T03:32:08;8.90;99.90
32187;DHT22;18686;53.084;8.872;2023-12-29T03:34:37;8.90;99.90
32187;DHT22;18686;53.084;8.872;2023-12-29T03:37:06;8.80;99.90
32187;DHT22;18686;53.084;8.872;2023-12-29T03:39:34;8.80;99.90
32187;DHT22;18686;53.084;8.872;2023-12-29T03:42:04;8.80;99.90
32187;DHT22;18686;53.084;8.872;2023-12-29T03:44:32;8.80;99.90
32187;DHT22;18686;53.084;8.872;2023-12-29T03:47:00;8.80;99.90
32187;DHT22;18686;53.084;8.872;2023-12-29T03:49:30;8.80;99.90
32187;DHT22;18686;53.084;8.872;2023-12-29T03:51:58;8.80;99.90
32187;DHT22;18686;53.084;8.872;2023-12-29T03:54:27;8.80;99.90
32187;DHT22;18686;53.084;8.872;2023-12-29T03:56:55;8.80;99.90
32187;DHT22;18686;53.084;8.872;2023-12-29T03:59:23;8.60;99.90
32187;DHT22;18686;53.084;8.872;2023-12-29T04:01:51;8.30;99.90
32187;DHT22;18686;53.084;8.872;2023-12-29T04:04:20;8.00;99.90
32187;DHT22;18686;53.084;8.872;2023-12-29T04:06:49;7.80;99.90
32187;DHT22;18686;53.084;8.872;2023-12-29T04:09:18;7.60;99.90
32187;DHT22;18686;53.084;8.872;2023-12-29T04:11:50;7.50;99.90
32187;DHT22;18686;53.084;8.872;2023-12-29T04:14:18;7.30;99.90
32187;DHT22;18686;53.084;8.872;2023-12-29T04:16:46;7.20;99.90
32187;DHT22;18686;53.084;8.872;2023-12-29T04:19:15;7.20;99.90
32187;DHT22;18686;53.084;8.872;2023-12-29T04:21:43;7.10;99.90
32187;DHT22;18686;53.084;8.872;2023-12-29T04:24:13;7.10;99.90
32187;DHT22;18686;53.084;8.872;2023-12-29T04:26:41;7.10;99.90
32187;DHT22;18686;53.084;8.872;2023-12-29T04:29:12;7.00;99.90
32187;DHT22;18686;53.084;8.872;2023-12-29T04:31:41;7.00;99.90
32187;DHT22;18686;53.084;8.872;2023-12-29T04:34:12;7.00;99.90
32187;DHT22;18686;53.084;8.872;2023-12-29T04:36:41;7.00;99.90
32187;DHT22;18686;53.084;8.872;2023-12-29T04:39:09;7.00;99.90
32187;DHT22;18686;53.084;8.872;2023-12-29T04:41:39;7.00;99.90
32187;DHT22;18686;53.084;8.872;2023-12-29T04:44:07;7.00;99.90
32187;DHT22;18686;53.084;8.872;2023-12-29T04:46:35;7.00;99.90
32187;DHT22;18686;53.084;8.872;2023-12-29T04:49:04;7.00;99.90
32187;DHT22;18686;53.084;8.872;2023-12-29T04:51:32;7.00;99.90
32187;DHT22;18686;53.084;8.872;2023-12-29T04:54:00;7.00;99.90
32187;DHT22;18686;53.084;8.872;2023-12-29T04:56:29;7.10;99.90
32187;DHT22;18686;53.084;8.872;2023-12-29T04:58:58;7.20;99.90
32187;DHT22;18686;53.084;8.872;2023-12-29T05:01:27;7.40;99.90
32187;DHT22;18686;53.084;8.872;2023-12-29T05:03:55;7.60;99.90
32187;DHT22;18686;53.084;8.872;2023-12-29T05:06:23;7.90;99.90
32187;DHT22;18686;53.084;8.872;2023-12-29T05:08:52;8.10;99.90
32187;DHT22;18686;53.084;8.872;2023-12-29T05:11:20;8.20;99.90
32187;DHT22;18686;53.084;8.872;2023-12-29T05:13:48;8.30;99.90
32187;DHT22;18686;53.084;8.872;2023-12-29T05:16:18;8.40;99.90
32187;DHT22;18686;53.084;8.872;2023-12-29T05:18:46;8.50;99.90
32187;DHT22;18686;53.084;8.872;2023-12-29T05:21:16;8.50;99.90
32187;DHT22;18686;53.084;8.872;2023-12-29T05:23:45;8.60;99.90
32187;DHT22;18686;53.084;8.872;2023-12-29T05:26:14;8.60;99.90
32187;DHT22;18686;53.084;8.872;2023-12-29T05:28:43;8.70;99.90
32187;DHT22;18686;53.084;8.872;2023-12-29T05:31:11;8.70;99.90
32187;DHT22;18686;53.084;8.872;2023-12-29T05:33:41;8.70;99.90
32187;DHT22;18686;53.084;8.872;2023-12-29T05:36:11;8.70;99.90
32187;DHT22;18686;53.084;8.872;2023-12-29T05:38:40;8.80;99.90
32187;DHT22;18686;53.084;8.872;2023-12-29T05:41:08;8.80;99.90
32187;DHT22;18686;53.084;8.872;2023-12-29T05:43:41;8.80;99.90
32187;DHT22;18686;53.084;8.872;2023-12-29T05:46:09;8.80;99.90
32187;DHT22;18686;53.084;8.872;2023-12-29T05:48:40;8.80;99.90
32187;DHT22;18686;53.084;8.872;2023-12-29T05:51:09;8.70;99.90
32187;DHT22;18686;53.084;8.872;2023-12-29T05:53:39;8.70;99.90
32187;DHT22;18686;53.084;8.872;2023-12-29T05:56:08;8.60;99.90
32187;DHT22;18686;53.084;8.872;2023-12-29T05:58:37;8.60;99.90
32187;DHT22;18686;53.084;8.872;2023-12-29T06:01:05;8.60;99.90
32187;DHT22;18686;53.084;8.872;2023-12-29T06:03:33;8.60;99.90
32187;DHT22;18686;53.084;8.872;2023-12-29T06:06:04;8.60;99.90
32187;DHT22;18686;53.084;8.872;2023-12-29T06:08:32;8.60;99.90
32187;DHT22;18686;53.084;8.872;2023-12-29T06:11:01;8.60;99.90
32187;DHT22;18686;53.084;8.872;2023-12-29T06:13:30;8.60;99.90
32187;DHT22;18686;53.084;8.872;2023-12-29T06:15:58;8.70;99.90
32187;DHT22;18686;53.084;8.872;2023-12-29T06:18:27;8.70;99.90
32187;DHT22;18686;53.084;8.872;2023-12-29T06:20:56;8.70;99.90
32187;DHT22;18686;53.084;8.872;2023-12-29T06:23:25;8.70;99.90
32187;DHT22;18686;53.084;8.872;2023-12-29T06:25:54;8.70;99.90
32187;DHT22;18686;53.084;8.872;2023-12-29T06:28:22;8.70;99.90
32187;DHT22;18686;53.084;8.872;2023-12-29T06:30:51;8.60;99.90
32187;DHT22;18686;53.084;8.872;2023-12-29T06:33:19;8.60;99.90
32187;DHT22;18686;53.084;8.872;2023-12-29T06:35:50;8.60;99.90
32187;DHT22;18686;53.084;8.872;2023-12-29T06:38:18;8.50;99.90
32187;DHT22;18686;53.084;8.872;2023-12-29T06:40:48;8.50;99.90
32187;DHT22;18686;53.084;8.872;2023-12-29T06:43:16;8.50;99.90
32187;DHT22;18686;53.084;8.872;2023-12-29T06:45:44;8.40;99.90
32187;DHT22;18686;53.084;8.872;2023-12-29T06:48:13;8.40;99.90
32187;DHT22;18686;53.084;8.872;2023-12-29T06:50:42;8.40;99.90
32187;DHT22;18686;53.084;8.872;2023-12-29T06:53:10;8.40;99.90
32187;DHT22;18686;53.084;8.872;2023-12-29T06:55:39;8.30;99.90
32187;DHT22;18686;53.084;8.872;2023-12-29T06:58:08;8.30;99.90
32187;DHT22;18686;53.084;8.872;2023-12-29T07:00:37;8.30;99.90
32187;DHT22;18686;53.084;8.872;2023-12-29T07:03:08;8.30;99.90
32187;DHT22;18686;53.084;8.872;2023-12-29T07:05:36;8.30;99.90
32187;DHT22;18686;53.084;8.872;2023-12-29T07:08:05;8.30;99.90
32187;DHT22;18686;53.084;8.872;2023-12-29T07:10:33;8.30;99.90
32187;DHT22;18686;53.084;8.872;2023-12-29T07:13:02;8.40;99.90
32187;DHT22;18686;53.084;8.872;2023-12-29T07:15:32;8.40;99.90
32187;DHT22;18686;53.084;8.872;2023-12-29T07:18:00;8.40;99.90
32187;DHT22;18686;53.084;8.872;2023-12-29T07:20:29;8.30;99.90
32187;DHT22;18686;53.084;8.872;2023-12-29T07:22:57;8.40;99.90
32187;DHT22;18686;53.084;8.872;2023-12-29T07:25:26;8.40;99.90
32187;DHT22;18686;53.084;8.872;2023-12-29T07:27:54;8.40;99.90
32187;DHT22;18686;53.084;8.872;2023-12-29T07:30:23;8.40;99.90
32187;DHT22;18686;53.084;8.872;2023-12-29T07:32:54;8.40;99.90
32187;DHT22;18686;53.084;8.872;2023-12-29T07:35:23;8.50;99.90
32187;DHT22;18686;53.084;8.872;2023-12-29T07:37:51;8.40;99.90
32187;DHT22;18686;53.084;8.872;2023-12-29T07:40:20;8.50;99.90
32187;DHT22;18686;53.084;8.872;2023-12-29T07:42:49;8.50;99.90
32187;DHT22;18686;53.084;8.872;2023-12-29T07:45:18;8.50;99.90
32187;DHT22;18686;53.084;8.872;2023-12-29T07:47:47;8.50;99.90
32187;DHT22;18686;53.084;8.872;2023-12-29T07:50:17;8.50;99.90
32187;DHT22;18686;53.084;8.872;2023-12-29T07:52:45;8.70;99.90
32187;DHT22;18686;53.084;8.872;2023-12-29T07:55:14;8.80;99.90
32187;DHT22;18686;53.084;8.872;2023-12-29T07:57:43;9.00;99.90
32187;DHT22;18686;53.084;8.872;2023-12-29T08:00:14;9.10;99.90
32187;DHT22;18686;53.084;8.872;2023-12-29T08:02:43;9.30;99.90
32187;DHT22;18686;53.084;8.872;2023-12-29T08:05:11;9.50;99.90
32187;DHT22;18686;53.084;8.872;2023-12-29T08:07:43;9.50;99.90
32187;DHT22;18686;53.084;8.872;2023-12-29T08:10:12;9.30;99.90
32187;DHT22;18686;53.084;8.872;2023-12-29T08:12:41;9.20;99.90
32187;DHT22;18686;53.084;8.872;2023-12-29T08:15:09;9.10;99.90
32187;DHT22;18686;53.084;8.872;2023-12-29T08:17:38;9.00;99.90
32187;DHT22;18686;53.084;8.872;2023-12-29T08:20:07;8.90;99.90
32187;DHT22;18686;53.084;8.872;2023-12-29T08:22:36;8.80;99.90
32187;DHT22;18686;53.084;8.872;2023-12-29T08:25:07;8.70;99.90
32187;DHT22;18686;53.084;8.872;2023-12-29T08:27:35;8.70;99.90
32187;DHT22;18686;53.084;8.872;2023-12-29T08:30:05;8.60;99.90
32187;DHT22;18686;53.084;8.872;2023-12-29T08:32:33;8.70;99.90
32187;DHT22;18686;53.084;8.872;2023-12-29T08:35:02;8.70;99.90
32187;DHT22;18686;53.084;8.872;2023-12-29T08:37:30;8.70;99.90
32187;DHT22;18686;53.084;8.872;2023-12-29T08:40:00;8.70;99.90
32187;DHT22;18686;53.084;8.872;2023-12-29T08:42:31;8.70;99.90
32187;DHT22;18686;53.084;8.872;2023-12-29T08:44:59;8.70;99.90
32187;DHT22;18686;53.084;8.872;2023-12-29T08:47:27;8.70;99.90
32187;DHT22;18686;53.084;8.872;2023-12-29T08:49:56;8.70;99.90
32187;DHT22;18686;53.084;8.872;2023-12-29T08:52:24;8.70;99.90
32187;DHT22;18686;53.084;8.872;2023-12-29T08:54:54;8.60;99.90
32187;DHT22;18686;53.084;8.872;2023-12-29T08:57:22;8.50;99.90
32187;DHT22;18686;53.084;8.872;2023-12-29T08:59:52;8.30;99.90
32187;DHT22;18686;53.084;8.872;2023-12-29T09:02:21;8.30;99.90
32187;DHT22;18686;53.084;8.872;2023-12-29T09:04:50;8.20;99.90
32187;DHT22;18686;53.084;8.872;2023-12-29T09:07:18;8.20;99.90
32187;DHT22;18686;53.084;8.872;2023-12-29T09:09:46;8.20;99.90
32187;DHT22;18686;53.084;8.872;2023-12-29T09:12:15;8.20;99.90
32187;DHT22;18686;53.084;8.872;2023-12-29T09:14:43;8.20;99.90
32187;DHT22;18686;53.084;8.872;2023-12-29T09:17:13;8.20;99.90
32187;DHT22;18686;53.084;8.872;2023-12-29T09:19:41;8.20;99.90
32187;DHT22;18686;53.084;8.872;2023-12-29T09:22:13;8.20;99.90
32187;DHT22;18686;53.084;8.872;2023-12-29T09:24:41;8.20;99.90
32187;DHT22;18686;53.084;8.872;2023-12-29T09:27:11;8.20;99.90
32187;DHT22;18686;53.084;8.872;2023-12-29T09:29:40;8.20;99.90
32187;DHT22;18686;53.084;8.872;2023-12-29T09:32:09;8.10;99.90
32187;DHT22;18686;53.084;8.872;2023-12-29T09:34:38;8.00;99.90
32187;DHT22;18686;53.084;8.872;2023-12-29T09:37:07;8.10;99.90
32187;DHT22;18686;53.084;8.872;2023-12-29T09:39:35;8.00;99.90
32187;DHT22;18686;53.084;8.872;2023-12-29T09:42:04;8.10;99.90
32187;DHT22;18686;53.084;8.872;2023-12-29T09:44:35;8.10;99.90
32187;DHT22;18686;53.084;8.872;2023-12-29T09:47:04;8.10;99.90
32187;DHT22;18686;53.084;8.872;2023-12-29T09:49:38;8.10;99.90
32187;DHT22;18686;53.084;8.872;2023-12-29T09:52:11;8.00;99.90
32187;DHT22;18686;53.084;8.872;2023-12-29T09:54:41;8.00;99.90
32187;DHT22;18686;53.084;8.872;2023-12-29T09:57:09;8.00;99.90
32187;DHT22;18686;53.084;8.872;2023-12-29T09:59:38;8.00;99.90
32187;DHT22;18686;53.084;8.872;2023-12-29T10:02:14;8.10;99.90
32187;DHT22;18686;53.084;8.872;2023-12-29T10:04:44;8.20;99.90
32187;DHT22;18686;53.084;8.872;2023-12-29T10:07:18;8.30;99.90
32187;DHT22;18686;53.084;8.872;2023-12-29T10:09:50;8.40;99.90
32187;DHT22;18686;53.084;8.872;2023-12-29T10:12:20;8.50;99.90
32187;DHT22;18686;53.084;8.872;2023-12-29T10:14:55;8.50;99.90
32187;DHT22;18686;53.084;8.872;2023-12-29T10:17:48;8.50;99.90
32187;DHT22;18686;53.084;8.872;2023-12-29T10:20:30;8.50;99.90
32187;DHT22;18686;53.084;8.872;2023-12-29T10:23:06;8.50;99.90
32187;DHT22;18686;53.084;8.872;2023-12-29T10:25:36;8.50;99.90
32187;DHT22;18686;53.084;8.872;2023-12-29T10:28:05;8.40;99.90
32187;DHT22;18686;53.084;8.872;2023-12-29T10:30:34;8.30;99.90
32187;DHT22;18686;53.084;8.872;2023-12-29T10:33:04;8.30;99.90
32187;DHT22;18686;53.084;8.872;2023-12-29T10:35:36;8.20;99.90
32187;DHT22;18686;53.084;8.872;2023-12-29T10:38:10;8.20;99.90
32187;DHT22;18686;53.084;8.872;2023-12-29T10:40:39;8.10;99.90
32187;DHT22;18686;53.084;8.872;2023-12-29T10:43:07;8.00;99.90
32187;DHT22;18686;53.084;8.872;2023-12-29T10:45:36;8.00;99.90
32187;DHT22;18686;53.084;8.872;2023-12-29T10:48:05;8.00;99.90
32187;DHT22;18686;53.084;8.872;2023-12-29T10:50:44;7.90;99.90
32187;DHT22;18686;53.084;8.872;2023-12-29T10:53:14;7.90;99.90
32187;DHT22;18686;53.084;8.872;2023-12-29T10:55:44;7.80;99.90
32187;DHT22;18686;53.084;8.872;2023-12-29T10:58:15;7.80;99.90
32187;DHT22;18686;53.084;8.872;2023-12-29T11:00:44;7.80;99.90
32187;DHT22;18686;53.084;8.872;2023-12-29T11:03:15;7.80;99.90
32187;DHT22;18686;53.084;8.872;2023-12-29T11:05:45;7.90;99.90
32187;DHT22;18686;53.084;8.872;2023-12-29T11:08:17;7.90;99.90
32187;DHT22;18686;53.084;8.872;2023-12-29T11:10:48;7.90;99.90
32187;DHT22;18686;53.084;8.872;2023-12-29T11:13:17;7.90;99.90
32187;DHT22;18686;53.084;8.872;2023-12-29T11:15:47;7.90;99.90
32187;DHT22;18686;53.084;8.872;2023-12-29T11:18:16;7.90;99.90
32187;DHT22;18686;53.084;8.872;2023-12-29T11:20:47;7.90;99.90
32187;DHT22;18686;53.084;8.872;2023-12-29T11:23:16;7.90;99.90
32187;DHT22;18686;53.084;8.872;2023-12-29T11:25:45;7.90;99.90
32187;DHT22;18686;53.084;8.872;2023-12-29T11:28:13;8.00;99.90
32187;DHT22;18686;53.084;8.872;2023-12-29T11:30:42;8.00;99.90
32187;DHT22;18686;53.084;8.872;2023-12-29T11:33:17;8.00;99.90
32187;DHT22;18686;53.084;8.872;2023-12-29T11:35:53;8.10;99.90
32187;DHT22;18686;53.084;8.872;2023-12-29T11:38:30;8.10;99.90
32187;DHT22;18686;53.084;8.872;2023-12-29T11:41:07;8.10;99.90
32187;DHT22;18686;53.084;8.872;2023-12-29T11:43:36;8.10;99.90
32187;DHT22;18686;53.084;8.872;2023-12-29T11:46:05;8.10;99.90
32187;DHT22;18686;53.084;8.872;2023-12-29T11:48:55;8.10;99.90
32187;DHT22;18686;53.084;8.872;2023-12-29T11:51:29;8.20;99.90
32187;DHT22;18686;53.084;8.872;2023-12-29T11:53:58;8.20;99.90
32187;DHT22;18686;53.084;8.872;2023-12-29T11:56:35;8.20;99.90
32187;DHT22;18686;53.084;8.872;2023-12-29T11:59:16;8.20;99.90
32187;DHT22;18686;53.084;8.872;2023-12-29T12:01:50;8.20;99.90
32187;DHT22;18686;53.084;8.872;2023-12-29T12:04:38;8.20;99.90
32187;DHT22;18686;53.084;8.872;2023-12-29T12:07:15;8.20;99.90
32187;DHT22;18686;53.084;8.872;2023-12-29T12:09:44;8.30;99.90
32187;DHT22;18686;53.084;8.872;2023-12-29T12:12:39;8.20;99.90
32187;DHT22;18686;53.084;8.872;2023-12-29T12:15:33;8.30;99.90
32187;DHT22;18686;53.084;8.872;2023-12-29T12:18:03;8.30;99.90
32187;DHT22;18686;53.084;8.872;2023-12-29T12:20:36;8.30;99.90
32187;DHT22;18686;53.084;8.872;2023-12-29T12:23:11;8.20;99.90
32187;DHT22;18686;53.084;8.872;2023-12-29T12:25:41;8.30;99.90
32187;DHT22;18686;53.084;8.872;2023-12-29T12:28:09;8.20;99.90
32187;DHT22;18686;53.084;8.872;2023-12-29T12:30:38;8.10;99.90
32187;DHT22;18686;53.084;8.872;2023-12-29T12:33:06;8.20;99.90
32187;DHT22;18686;53.084;8.872;2023-12-29T12:35:39;8.80;99.90
32187;DHT22;18686;53.084;8.872;2023-12-29T12:38:10;9.30;99.90
32187;DHT22;18686;53.084;8.872;2023-12-29T12:40:38;9.80;99.90
32187;DHT22;18686;53.084;8.872;2023-12-29T12:43:07;9.80;99.90
32187;DHT22;18686;53.084;8.872;2023-12-29T12:45:41;9.80;99.90
32187;DHT22;18686;53.084;8.872;2023-12-29T12:48:14;9.70;99.90
32187;DHT22;18686;53.084;8.872;2023-12-29T12:50:48;9.70;99.90
32187;DHT22;18686;53.084;8.872;2023-12-29T12:53:18;9.50;99.90
32187;DHT22;18686;53.084;8.872;2023-12-29T12:55:49;9.50;99.90
32187;DHT22;18686;53.084;8.872;2023-12-29T12:58:18;9.40;99.90
32187;DHT22;18686;53.084;8.872;2023-12-29T13:00:48;9.30;99.90
32187;DHT22;18686;53.084;8.872;2023-12-29T13:03:21;9.30;99.90
32187;DHT22;18686;53.084;8.872;2023-12-29T13:05:49;9.20;99.90
32187;DHT22;18686;53.084;8.872;2023-12-29T13:08:20;9.30;99.90
32187;DHT22;18686;53.084;8.872;2023-12-29T13:11:01;9.30;99.90
32187;DHT22;18686;53.084;8.872;2023-12-29T13:13:37;9.30;99.90
32187;DHT22;18686;53.084;8.872;2023-12-29T13:16:06;9.30;99.90
32187;DHT22;18686;53.084;8.872;2023-12-29T13:18:34;9.40;99.90
32187;DHT22;18686;53.084;8.872;2023-12-29T13:21:06;9.50;99.90
32187;DHT22;18686;53.084;8.872;2023-12-29T13:23:36;9.60;99.90
32187;DHT22;18686;53.084;8.872;2023-12-29T13:26:06;9.90;99.90
32187;DHT22;18686;53.084;8.872;2023-12-29T13:28:35;10.30;99.90
32187;DHT22;18686;53.084;8.872;2023-12-29T13:31:08;10.50;99.90
32187;DHT22;18686;53.084;8.872;2023-12-29T13:33:49;10.50;99.90
32187;DHT22;18686;53.084;8.872;2023-12-29T13:36:25;10.80;99.90
32187;DHT22;18686;53.084;8.872;2023-12-29T13:39:06;11.10;99.90
32187;DHT22;18686;53.084;8.872;2023-12-29T13:41:36;11.10;99.90
32187;DHT22;18686;53.084;8.872;2023-12-29T13:44:05;11.00;99.90
32187;DHT22;18686;53.084;8.872;2023-12-29T13:46:35;10.90;99.90
32187;DHT22;18686;53.084;8.872;2023-12-29T13:49:04;10.70;99.90
32187;DHT22;18686;53.084;8.872;2023-12-29T13:51:33;10.60;99.90
32187;DHT22;18686;53.084;8.872;2023-12-29T13:54:03;10.40;99.90
32187;DHT22;18686;53.084;8.872;2023-12-29T13:56:32;10.30;99.90
32187;DHT22;18686;53.084;8.872;2023-12-29T13:59:00;10.00;99.90
32187;DHT22;18686;53.084;8.872;2023-12-29T14:01:35;9.90;99.90
32187;DHT22;18686;53.084;8.872;2023-12-29T14:04:07;9.70;99.90
32187;DHT22;18686;53.084;8.872;2023-12-29T14:06:43;9.50;99.90
32187;DHT22;18686;53.084;8.872;2023-12-29T14:09:19;9.30;99.90
32187;DHT22;18686;53.084;8.872;2023-12-29T14:11:48;9.10;99.90
32187;DHT22;18686;53.084;8.872;2023-12-29T14:14:22;9.00;99.90
32187;DHT22;18686;53.084;8.872;2023-12-29T14:16:52;8.90;99.90
32187;DHT22;18686;53.084;8.872;2023-12-29T14:19:21;8.90;99.90
32187;DHT22;18686;53.084;8.872;2023-12-29T14:21:51;8.80;99.90
32187;DHT22;18686;53.084;8.872;2023-12-29T14:24:22;8.80;99.90
32187;DHT22;18686;53.084;8.872;2023-12-29T14:26:54;8.70;99.90
32187;DHT22;18686;53.084;8.872;2023-12-29T14:29:26;8.70;99.90
32187;DHT22;18686;53.084;8.872;2023-12-29T14:31:54;8.60;99.90
32187;DHT22;18686;53.084;8.872;2023-12-29T14:34:23;8.60;99.90
32187;DHT22;18686;53.084;8.872;2023-12-29T14:36:54;8.60;99.90
32187;DHT22;18686;53.084;8.872;2023-12-29T14:39:25;8.50;99.90
32187;DHT22;18686;53.084;8.872;2023-12-29T14:41:53;8.50;99.90
32187;DHT22;18686;53.084;8.872;2023-12-29T14:44:22;8.50;99.90
32187;DHT22;18686;53.084;8.872;2023-12-29T14:46:51;8.40;99.90
32187;DHT22;18686;53.084;8.872;2023-12-29T14:49:19;8.40;99.90
32187;DHT22;18686;53.084;8.872;2023-12-29T14:51:47;8.40;99.90
32187;DHT22;18686;53.084;8.872;2023-12-29T14:54:16;8.30;99.90
32187;DHT22;18686;53.084;8.872;2023-12-29T14:56:46;8.30;99.90
32187;DHT22;18686;53.084;8.872;2023-12-29T14:59:15;8.30;99.90
32187;DHT22;18686;53.084;8.872;2023-12-29T15:01:43;8.30;99.90
32187;DHT22;18686;53.084;8.872;2023-12-29T15:04:11;8.30;99.90
32187;DHT22;18686;53.084;8.872;2023-12-29T15:06:42;8.30;99.90
32187;DHT22;18686;53.084;8.872;2023-12-29T15:09:10;8.30;99.90
32187;DHT22;18686;53.084;8.872;2023-12-29T15:11:38;8.40;99.90
32187;DHT22;18686;53.084;8.872;2023-12-29T15:14:08;8.40;99.90
32187;DHT22;18686;53.084;8.872;2023-12-29T15:16:38;8.40;99.90
32187;DHT22;18686;53.084;8.872;2023-12-29T15:19:06;8.50;99.90
32187;DHT22;18686;53.084;8.872;2023-12-29T15:21:35;8.50;99.90
32187;DHT22;18686;53.084;8.872;2023-12-29T15:24:04;8.50;99.90
32187;DHT22;18686;53.084;8.872;2023-12-29T15:26:34;8.50;99.90
32187;DHT22;18686;53.084;8.872;2023-12-29T15:29:02;8.50;99.90
32187;DHT22;18686;53.084;8.872;2023-12-29T15:31:32;8.60;99.90
32187;DHT22;18686;53.084;8.872;2023-12-29T15:34:01;8.60;99.90
32187;DHT22;18686;53.084;8.872;2023-12-29T15:36:29;8.60;99.90
32187;DHT22;18686;53.084;8.872;2023-12-29T15:38:58;8.70;99.90
32187;DHT22;18686;53.084;8.872;2023-12-29T15:41:26;8.60;99.90
32187;DHT22;18686;53.084;8.872;2023-12-29T15:43:56;8.60;99.90
32187;DHT22;18686;53.084;8.872;2023-12-29T15:46:25;8.60;99.90
32187;DHT22;18686;53.084;8.872;2023-12-29T15:48:54;8.60;99.90
32187;DHT22;18686;53.084;8.872;2023-12-29T15:51:25;8.50;99.90
32187;DHT22;18686;53.084;8.872;2023-12-29T15:53:53;8.50;99.90
32187;DHT22;18686;53.084;8.872;2023-12-29T15:56:23;8.40;99.90
32187;DHT22;18686;53.084;8.872;2023-12-29T15:58:51;8.40;99.90